METAR Data
IDs: Format: Raw Decoded Include TAF

Data at: 1052 UTC 28 Jul 2021

METAR for:KDUH (Toledo/Suburban Arpt, MI, US)
Text:KDUH 281035Z AUTO 00000KT 4SM BR CLR 19/18 A3004 RMK AO2 T01860177
Temperature: 18.6°C ( 65°F)
Dewpoint: 17.7°C ( 64°F) [RH = 95%]
Pressure (altimeter):30.04 inches Hg (1017.4 mb)
Winds:calm
Visibility: 4 sm ( 6 km)
Ceiling:at least 12,000 feet AGL
Clouds:sky clear below 12,000 feet AGL
Weather:BR (mist)
QC Flag:automated observation with no human augmentation